Kruzenshtern — UCVK — position and weather

sailwx.info

Track history (hours):
 
Tides and Currents Weather Stations Pressure Air Temp Water Temp Dewpoint Dewpoint Depression Visibility Wind Speed Wind Dir Waves Ship Positions

Kruzenshtern (Russia)

ex-Padua.

Last reported at 2017-Jul-26 09:11 UTC. Time now 2017-Jul-27 00:36 UTC.
Position N 56°09' E 019°54'.

Length 114 m; draft 6.2 m.

Type: Sailing vessel. MMSI: 273243700.

Date/timePositionNaut miles runAvg speedWind from/ knotsBaromVisibWave heightAir tempDewpointWater temp
2017-Jul-26 09:11N 56°09' E 019°54'2 8.9
2017-Jul-26 09:00N 56°10' E 019°52'8 9.0
2017-Jul-26 08:09N 56°15' E 019°41'1 8.9
2017-Jul-26 08:01N 56°16' E 019°39'9 8.5
2017-Jul-26 06:56N 56°21' E 019°25'4 7.5
2017-Jul-26 06:26N 56°23' E 019°19'4 7.2
2017-Jul-26 05:54N 56°25' E 019°14'8 6.6
2017-Jul-26 04:40N 56°30' E 019°03'18 5.7
2017-Jul-26 01:31N 56°40' E 018°36'0 6.0
2017-Jul-26 01:29N 56°40' E 018°35'3 5.6
2017-Jul-26 00:58N 56°42' E 018°31'2 5.0
2017-Jul-26 00:29N 56°43' E 018°27'13 5.2
2017-Jul-25 22:04N 56°51' E 018°09'1 5.1
2017-Jul-25 21:47N 56°52' E 018°07'141 5.4
2017-Jul-24 19:47N 59°04' E 019°44'2 7.5
2017-Jul-24 19:30N 59°05' E 019°47'4 6.7
2017-Jul-24 18:52N 59°08' E 019°53'2 6.7
2017-Jul-24 18:30N 59°09' E 019°58'4 6.9
2017-Jul-24 17:57N 59°11' E 020°04'4 7.2
2017-Jul-24 17:23N 59°12' E 020°11'3 7.3
2017-Jul-24 16:59N 59°14' E 020°16'4 7.9
2017-Jul-24 16:30N 59°16' E 020°23'4 7.4
2017-Jul-24 16:00N 59°18' E 020°29'22 7.3
2017-Jul-24 13:00N 59°31' E 021°02'3 5.2
2017-Jul-24 12:30N 59°33' E 021°06'3 5.4
2017-Jul-24 12:00N 59°35' E 021°10'3 5.0
2017-Jul-24 11:30N 59°37' E 021°13'3 5.3
2017-Jul-24 11:00N 59°39' E 021°17'1 1.7
2017-Jul-24 10:30N 59°39' E 021°16'3 6.6
2017-Jul-24 10:00N 59°37' E 021°10'2 3.0
2017-Jul-24 09:30N 59°36' E 021°07'0 0.4
2017-Jul-24 09:00N 59°36' E 021°08'0 0.5
2017-Jul-24 08:30N 59°37' E 021°08'0 0.7
2017-Jul-24 08:01N 59°37' E 021°09'0 0.5
2017-Jul-24 07:30N 59°37' E 021°09'0 0.6
2017-Jul-24 07:00N 59°37' E 021°10'0 0.4
2017-Jul-24 06:30N 59°37' E 021°10'0 0.5
2017-Jul-24 06:00N 59°37' E 021°10'1 2.9
2017-Jul-24 05:30N 59°36' E 021°11'3 6.0
2017-Jul-24 05:00N 59°34' E 021°06'3 6.1
2017-Jul-24 04:30N 59°32' E 021°02'1 1.6
2017-Jul-24 04:01N 59°31' E 021°01'0 0.7
2017-Jul-24 03:31N 59°31' E 021°02'0 0.7
2017-Jul-24 03:00N 59°31' E 021°02'0 0.7
2017-Jul-24 02:31N 59°32' E 021°03'0 0.6
2017-Jul-24 02:00N 59°32' E 021°03'0 0.7
2017-Jul-24 01:30N 59°32' E 021°04'0 0.7
2017-Jul-24 01:00N 59°33' E 021°04'0 0.6
2017-Jul-24 00:30N 59°33' E 021°04'0 0.5
2017-Jul-24 00:00N 59°33' E 021°04'0 0.6
2017-Jul-23 23:30N 59°33' E 021°05'0 0.6
2017-Jul-23 23:00N 59°33' E 021°05'0 0.5
2017-Jul-23 22:31N 59°34' E 021°05'0 0.6
2017-Jul-23 22:00N 59°34' E 021°06'2 4.4
2017-Jul-23 21:31N 59°35' E 021°10'5 9.9
2017-Jul-23 21:01N 59°38' E 021°17'5 9.8
2017-Jul-23 20:31N 59°43' E 021°21'5 9.3
2017-Jul-23 20:01N 59°47' E 021°21'5 9.4
2017-Jul-23 19:30N 59°51' E 021°26'5 9.6
2017-Jul-23 19:00N 59°54' E 021°34'5 9.9
2017-Jul-23 18:30N 59°57' E 021°41'5 9.8
2017-Jul-23 18:00N 60°02' E 021°41'5 9.9
2017-Jul-23 17:30N 60°07' E 021°41'510.2
2017-Jul-23 17:01N 60°12' E 021°42'5 9.3
2017-Jul-23 16:31N 60°15' E 021°50'4 8.6
2017-Jul-23 16:00N 60°16' E 021°58'4 8.5
2017-Jul-23 15:30N 60°20' E 022°04'4 8.5
2017-Jul-23 15:00N 60°24' E 022°07'3 5.7
2017-Jul-23 14:30N 60°26' E 022°11'1 2.5
2017-Jul-23 14:00N 60°26' E 022°14'1 1.1
2017-Jul-23 13:30N 60°26' E 022°14'0 0.0
2017-Jul-23 12:58N 60°26' E 022°14'0 0.0
2017-Jul-23 12:30N 60°26' E 022°14'0 0.0
2017-Jul-23 11:57N 60°26' E 022°14'0 0.0
2017-Jul-23 11:30N 60°26' E 022°14'0 0.0
2017-Jul-23 10:54N 60°26' E 022°14'0 0.0
2017-Jul-23 10:30N 60°26' E 022°14'0 0.0
2017-Jul-23 09:57N 60°26' E 022°14'0 0.0
2017-Jul-23 09:30N 60°26' E 022°14'0 0.0
2017-Jul-23 09:00N 60°26' E 022°14'0 0.0
2017-Jul-23 08:27N 60°26' E 022°14'0 0.0
2017-Jul-23 07:57N 60°26' E 022°14'0 0.0
2017-Jul-23 07:30N 60°26' E 022°14'0 0.0
2017-Jul-23 06:53N 60°26' E 022°14'0 0.0
2017-Jul-23 06:30N 60°26' E 022°14'0 0.0
2017-Jul-23 05:57N 60°26' E 022°14'0 0.0
2017-Jul-23 05:30N 60°26' E 022°14'0 0.0
2017-Jul-23 05:00N 60°26' E 022°14'0 0.0
2017-Jul-23 04:30N 60°26' E 022°14'0 0.0
2017-Jul-23 04:00N 60°26' E 022°14'0 0.0
2017-Jul-23 03:27N 60°26' E 022°14'0 0.0
2017-Jul-23 02:57N 60°26' E 022°14'0 0.0
2017-Jul-23 02:30N 60°26' E 022°14'0 0.0
2017-Jul-23 02:00N 60°26' E 022°14'0 0.0
2017-Jul-23 01:30N 60°26' E 022°14'0 0.0
2017-Jul-23 01:00N 60°26' E 022°14'0 0.0
2017-Jul-23 00:27N 60°26' E 022°14'0 0.0
2017-Jul-23 00:00N 60°26' E 022°14'0 0.0
2017-Jul-22 23:27N 60°26' E 022°14'0 0.0
2017-Jul-22 23:00N 60°26' E 022°14'0 0.0
2017-Jul-22 22:30N 60°26' E 022°14'0 0.0
2017-Jul-22 21:54N 60°26' E 022°14'0 0.0
2017-Jul-22 21:30N 60°26' E 022°14'0 0.0
2017-Jul-22 20:56N 60°26' E 022°14'0 0.0
2017-Jul-22 20:29N 60°26' E 022°14'0 0.0
2017-Jul-22 19:59N 60°26' E 022°14'0 0.0
2017-Jul-22 19:28N 60°26' E 022°14'0 0.0
2017-Jul-22 19:00N 60°26' E 022°14'0 0.0
2017-Jul-22 18:30N 60°26' E 022°14'0 0.0
2017-Jul-22 18:00N 60°26' E 022°14'0 0.0
2017-Jul-22 17:27N 60°26' E 022°14'0 0.0
2017-Jul-22 17:00N 60°26' E 022°14'0 0.0
2017-Jul-22 16:30N 60°26' E 022°14'0 0.0
2017-Jul-22 16:00N 60°26' E 022°14'0 0.0
2017-Jul-22 15:30N 60°26' E 022°14'0 0.0
2017-Jul-22 14:57N 60°26' E 022°14'0 0.0
2017-Jul-22 13:57N 60°26' E 022°14'0 0.0
2017-Jul-22 13:30N 60°26' E 022°14'0 0.0
2017-Jul-22 12:57N 60°26' E 022°14'0 0.0
2017-Jul-22 12:30N 60°26' E 022°14'0 0.0
2017-Jul-22 11:57N 60°26' E 022°14'0 0.0
2017-Jul-22 11:30N 60°26' E 022°14'0 0.0
2017-Jul-22 11:00N 60°26' E 022°14'0 0.0
2017-Jul-22 10:30N 60°26' E 022°14'0 0.0
2017-Jul-22 10:00N 60°26' E 022°14'0 0.0
2017-Jul-22 09:27N 60°26' E 022°14'0 0.0
2017-Jul-22 08:57N 60°26' E 022°14'0 0.0
2017-Jul-22 08:30N 60°26' E 022°14'0 0.0
2017-Jul-22 08:00N 60°26' E 022°14'0 0.0
2017-Jul-22 07:30N 60°26' E 022°14'0 0.0
2017-Jul-22 07:00N 60°26' E 022°14'0 0.0
2017-Jul-22 06:30N 60°26' E 022°14'0 0.0
2017-Jul-22 06:00N 60°26' E 022°14'0 0.0
2017-Jul-22 05:30N 60°26' E 022°14'0 0.0
2017-Jul-22 05:00N 60°26' E 022°14'0 0.0
2017-Jul-22 04:30N 60°26' E 022°14'0 0.0
2017-Jul-22 04:00N 60°26' E 022°14'0 0.0
2017-Jul-22 03:30N 60°26' E 022°14'0 0.0
2017-Jul-22 02:57N 60°26' E 022°14'0 0.0
2017-Jul-22 02:30N 60°26' E 022°14'0 0.0
2017-Jul-22 02:00N 60°26' E 022°14'0 0.0
2017-Jul-22 01:27N 60°26' E 022°14'0 0.0
2017-Jul-22 01:00N 60°26' E 022°14'0 0.0
2017-Jul-22 00:30N 60°26' E 022°14'0 0.0
2017-Jul-22 00:00N 60°26' E 022°14'0 0.0
2017-Jul-21 23:30N 60°26' E 022°14'0 0.0
2017-Jul-21 23:00N 60°26' E 022°14'0 0.0
2017-Jul-21 22:30N 60°26' E 022°14'0 0.0
2017-Jul-21 22:00N 60°26' E 022°14'0 0.0
2017-Jul-21 21:27N 60°26' E 022°14'0 0.0
2017-Jul-21 21:00N 60°26' E 022°14'0 0.0
2017-Jul-21 20:27N 60°26' E 022°14'0 0.0
2017-Jul-21 20:00N 60°26' E 022°14'0 0.0
2017-Jul-21 19:27N 60°26' E 022°14'0 0.0
2017-Jul-21 19:00N 60°26' E 022°14'0 0.0
2017-Jul-21 18:30N 60°26' E 022°14'0 0.0
2017-Jul-21 18:00N 60°26' E 022°14'0 0.0
2017-Jul-21 17:27N 60°26' E 022°14'0 0.0
2017-Jul-21 17:00N 60°26' E 022°14'0 0.0
2017-Jul-21 16:28N 60°26' E 022°14'0 0.0
2017-Jul-21 16:00N 60°26' E 022°14'0 0.0
2017-Jul-21 15:30N 60°26' E 022°14'0 0.0
2017-Jul-21 14:57N 60°26' E 022°14'0 0.0
2017-Jul-21 14:30N 60°26' E 022°14'0 0.0
2017-Jul-21 14:00N 60°26' E 022°14'0 0.0
2017-Jul-21 13:30N 60°26' E 022°14'0 0.0
2017-Jul-21 12:57N 60°26' E 022°14'0 0.0
2017-Jul-21 12:27N 60°26' E 022°14'0 0.0
2017-Jul-21 11:54N 60°26' E 022°14'0 0.0
2017-Jul-21 11:30N 60°26' E 022°14'0 0.0
2017-Jul-21 11:00N 60°26' E 022°14'0 0.0
2017-Jul-21 10:30N 60°26' E 022°14'0 0.0
2017-Jul-21 10:00N 60°26' E 022°14'0 0.0
2017-Jul-21 09:30N 60°26' E 022°14'0 0.0
2017-Jul-21 09:00N 60°26' E 022°14'0 0.0
2017-Jul-21 08:30N 60°26' E 022°14'0 0.0
2017-Jul-21 08:00N 60°26' E 022°14'0 0.0
2017-Jul-21 07:30N 60°26' E 022°14'0 0.0
2017-Jul-21 07:00N 60°26' E 022°14'0 0.0
2017-Jul-21 06:30N 60°26' E 022°14'0 0.0
2017-Jul-21 06:00N 60°26' E 022°14'0 0.0
2017-Jul-21 05:30N 60°26' E 022°14'0 0.0
2017-Jul-21 04:57N 60°26' E 022°14'0 0.0
2017-Jul-21 04:30N 60°26' E 022°14'0 0.0
2017-Jul-21 03:57N 60°26' E 022°14'0 0.0
2017-Jul-21 03:30N 60°26' E 022°14'0 0.0
2017-Jul-21 03:00N 60°26' E 022°14'0 0.0
2017-Jul-21 02:30N 60°26' E 022°14'0 0.0
2017-Jul-21 02:00N 60°26' E 022°14'0 0.0
2017-Jul-21 01:30N 60°26' E 022°14'0 0.0
2017-Jul-21 01:00N 60°26' E 022°14'0 0.0
2017-Jul-21 00:30N 60°26' E 022°14'0 0.0
2017-Jul-21 00:00N 60°26' E 022°14'0 0.0
2017-Jul-20 23:30N 60°26' E 022°14'0 0.0
2017-Jul-20 22:51N 60°26' E 022°14'0 0.0
2017-Jul-20 22:30N 60°26' E 022°14'0 0.0
2017-Jul-20 21:57N 60°26' E 022°14'0 0.0
2017-Jul-20 21:30N 60°26' E 022°14'0 0.0
2017-Jul-20 20:56N 60°26' E 022°14'0 0.0
2017-Jul-20 20:28N 60°26' E 022°14'0 0.0
2017-Jul-20 20:00N 60°26' E 022°14'0 0.0
2017-Jul-20 19:27N 60°26' E 022°14'0 0.0
2017-Jul-20 19:00N 60°26' E 022°14'0 0.0
2017-Jul-20 18:30N 60°26' E 022°14'0 0.0
2017-Jul-20 18:00N 60°26' E 022°14'0 0.0
2017-Jul-20 17:30N 60°26' E 022°14'0 0.0
2017-Jul-20 17:00N 60°26' E 022°14'0 0.0
2017-Jul-20 16:28N 60°26' E 022°14'0 0.0
2017-Jul-20 16:00N 60°26' E 022°14'0 0.0
2017-Jul-20 15:24N 60°26' E 022°14'0 0.0
2017-Jul-20 14:51N 60°26' E 022°14'0 0.0
2017-Jul-20 13:54N 60°26' E 022°14'0 0.0
2017-Jul-20 13:30N 60°26' E 022°14'0 0.0
2017-Jul-20 12:57N 60°26' E 022°14'0 0.0
2017-Jul-20 12:30N 60°26' E 022°14'0 0.0
2017-Jul-20 12:00N 60°26' E 022°14'0 0.0
2017-Jul-20 11:21N 60°26' E 022°14'0 0.0
2017-Jul-20 11:00N 60°26' E 022°14'0 0.0
2017-Jul-20 10:30N 60°26' E 022°14'0 0.0
2017-Jul-20 10:00N 60°26' E 022°14'0 0.0
2017-Jul-20 09:30N 60°26' E 022°14'0 0.0
2017-Jul-20 09:00N 60°26' E 022°14'0 0.0
2017-Jul-20 08:27N 60°26' E 022°14'0 0.0
2017-Jul-20 08:00N 60°26' E 022°14'0 0.0
2017-Jul-20 07:30N 60°26' E 022°14'0 0.0
2017-Jul-20 07:00N 60°26' E 022°14'0 0.0
2017-Jul-20 06:30N 60°26' E 022°14'0 0.0
2017-Jul-20 06:00N 60°26' E 022°14'0 0.0
2017-Jul-20 05:30N 60°26' E 022°14'0 0.0
2017-Jul-20 04:57N 60°26' E 022°14'0 0.0
2017-Jul-20 04:30N 60°26' E 022°14'0 0.0
2017-Jul-20 03:54N 60°26' E 022°14'0 0.0
2017-Jul-20 03:27N 60°26' E 022°14'0 0.0
2017-Jul-20 03:00N 60°26' E 022°14'0 0.0
2017-Jul-20 02:30N 60°26' E 022°14'0 0.0
2017-Jul-20 02:00N 60°26' E 022°14'0 0.0
2017-Jul-20 01:27N 60°26' E 022°14'0 0.0
2017-Jul-20 01:00N 60°26' E 022°14'0 0.0
2017-Jul-20 00:30N 60°26' E 022°14'0 0.0
2017-Jul-20 00:00N 60°26' E 022°14'0 0.0
2017-Jul-19 23:30N 60°26' E 022°14'0 0.0
2017-Jul-19 23:00N 60°26' E 022°14'0 0.0
2017-Jul-19 22:30N 60°26' E 022°14'0 0.0
2017-Jul-19 22:00N 60°26' E 022°14'0 0.0
2017-Jul-19 21:27N 60°26' E 022°14'0 0.0
2017-Jul-19 21:00N 60°26' E 022°14'0 0.0
2017-Jul-19 20:28N 60°26' E 022°14'0 0.1
2017-Jul-19 20:00N 60°26' E 022°14'1 1.0
2017-Jul-19 19:30N 60°26' E 022°13'2 3.3
2017-Jul-19 19:01N 60°25' E 022°10'3 5.9
2017-Jul-19 18:30N 60°23' E 022°07'2 4.8
2017-Jul-19 18:00N 60°21' E 022°05'2 3.4
2017-Jul-19 17:30N 60°19' E 022°03'3 5.3
2017-Jul-19 17:00N 60°17' E 022°01'4 7.2
2017-Jul-19 16:30N 60°16' E 021°54'4 7.9
2017-Jul-19 16:00N 60°14' E 021°46'4 7.8
2017-Jul-19 15:30N 60°11' E 021°42'4 8.2
2017-Jul-19 15:00N 60°07' E 021°41'4 8.3
2017-Jul-19 14:30N 60°03' E 021°41'4 8.2
2017-Jul-19 14:00N 59°59' E 021°42'5 9.1
2017-Jul-19 13:30N 59°55' E 021°37'5 9.6
2017-Jul-19 13:00N 59°52' E 021°29'5 9.4
2017-Jul-19 12:30N 59°49' E 021°21'4 8.1
2017-Jul-19 12:00N 59°45' E 021°21'4 7.4
2017-Jul-19 11:30N 59°42' E 021°19'3 6.0
2017-Jul-19 11:00N 59°39' E 021°16'3 6.8
2017-Jul-19 10:30N 59°36' E 021°12'4 7.2
2017-Jul-19 10:00N 59°33' E 021°08'4 7.1
2017-Jul-19 09:30N 59°30' E 021°04'3 6.8
2017-Jul-19 09:00N 59°28' E 021°01'3 6.7
2017-Jul-19 08:30N 59°25' E 020°57'3 6.6
2017-Jul-19 08:00N 59°22' E 020°53'14 6.4
2017-Jul-19 05:47N 59°10' E 020°38'1 3.0
2017-Jul-19 05:30N 59°11' E 020°38'0 0.9
2017-Jul-19 05:00N 59°11' E 020°38'0 0.9
2017-Jul-19 04:30N 59°12' E 020°38'0 0.8
2017-Jul-19 04:00N 59°12' E 020°37'0 1.0
2017-Jul-19 03:30N 59°13' E 020°37'0 0.9
2017-Jul-19 03:00N 59°13' E 020°37'1 1.1
2017-Jul-19 02:30N 59°14' E 020°36'1 1.1
2017-Jul-19 02:00N 59°14' E 020°36'1 1.2
2017-Jul-19 01:30N 59°15' E 020°36'1 1.0
2017-Jul-19 01:00N 59°15' E 020°35'0 0.8
2017-Jul-19 00:30N 59°15' E 020°35'0 0.7
2017-Jul-19 00:00N 59°16' E 020°34'0 0.7
2017-Jul-18 23:30N 59°16' E 020°33'0 0.6
2017-Jul-18 23:00N 59°16' E 020°33'0 0.6
2017-Jul-18 22:30N 59°16' E 020°32'0 0.5
2017-Jul-18 22:00N 59°16' E 020°32'0 0.4
2017-Jul-18 21:30N 59°16' E 020°31'0 0.3
2017-Jul-18 21:00N 59°16' E 020°31'0 0.1
2017-Jul-18 20:31N 59°16' E 020°31'1 1.2
2017-Jul-18 19:59N 59°15' E 020°31'3 7.1
2017-Jul-18 19:30N 59°12' E 020°32'5 6.1
2017-Jul-18 18:37N 59°07' E 020°35'2 5.5
2017-Jul-18 18:14N 59°05' E 020°35'1 4.7
2017-Jul-18 18:00N 59°06' E 020°35'2 3.4
2017-Jul-18 17:30N 59°07' E 020°34'1 1.1
2017-Jul-18 16:59N 59°07' E 020°33'2 3.2
2017-Jul-18 16:30N 59°05' E 020°34'2 3.4
2017-Jul-18 16:00N 59°04' E 020°34'2 3.5
2017-Jul-18 15:22N 59°02' E 020°35'1 3.4
2017-Jul-18 15:00N 59°00' E 020°35'5 2.7
2017-Jul-18 13:18N 58°56' E 020°34'2 2.9
2017-Jul-18 12:35N 58°58' E 020°33'0 2.5
2017-Jul-18 12:30N 58°58' E 020°33'1 2.4
2017-Jul-18 12:00N 58°59' E 020°33'1 2.1
2017-Jul-18 11:30N 59°00' E 020°33'1 2.1
2017-Jul-18 11:01N 59°01' E 020°33'1 2.1
2017-Jul-18 10:30N 59°02' E 020°33'1 2.7
2017-Jul-18 10:00N 59°04' E 020°34'2 3.3
2017-Jul-18 09:30N 59°05' E 020°34'2 3.6
2017-Jul-18 09:00N 59°07' E 020°35'2 3.5
2017-Jul-18 08:31N 59°09' E 020°36'2 3.3
2017-Jul-18 08:01N 59°10' E 020°36'2 3.8
2017-Jul-18 07:30N 59°12' E 020°36'1 2.3
2017-Jul-18 07:01N 59°13' E 020°36'1 2.2
2017-Jul-18 06:30N 59°14' E 020°37'1 2.4
2017-Jul-18 06:01N 59°15' E 020°38'1 1.5
2017-Jul-18 05:30N 59°16' E 020°39'0 0.8
2017-Jul-18 05:00N 59°16' E 020°39'0 0.8
2017-Jul-18 04:30N 59°17' E 020°39'0 0.9
2017-Jul-18 04:00N 59°17' E 020°39'0 0.8
2017-Jul-18 03:30N 59°18' E 020°39'0 0.7
2017-Jul-18 03:00N 59°18' E 020°38'0 0.6
2017-Jul-18 02:30N 59°18' E 020°37'0 0.6
2017-Jul-18 02:00N 59°18' E 020°37'0 0.6
2017-Jul-18 01:30N 59°18' E 020°36'0 0.7
2017-Jul-18 01:00N 59°18' E 020°35'0 0.8
2017-Jul-18 00:30N 59°18' E 020°35'0 0.7
2017-Jul-18 00:01N 59°18' E 020°35'3 5.4
2017-Jul-17 23:30N 59°18' E 020°40'3 6.1
2017-Jul-17 23:00N 59°18' E 020°46'3 6.0
2017-Jul-17 22:30N 59°19' E 020°52'3 5.5
2017-Jul-17 22:00N 59°19' E 020°57'2 4.2
2017-Jul-17 21:30N 59°19' E 021°01'2 4.6
2017-Jul-17 21:00N 59°19' E 021°06'3 5.3
2017-Jul-17 20:31N 59°20' E 021°11'3 5.7
2017-Jul-17 20:00N 59°20' E 021°17'3 5.6
2017-Jul-17 19:30N 59°20' E 021°22'3 5.7
2017-Jul-17 19:00N 59°20' E 021°28'3 5.8
2017-Jul-17 18:30N 59°21' E 021°33'3 5.6
2017-Jul-17 18:00N 59°21' E 021°39'3 5.6
2017-Jul-17 17:29N 59°22' E 021°44'3 5.6
2017-Jul-17 17:00N 59°23' E 021°49'3 5.1
2017-Jul-17 16:30N 59°24' E 021°54'2 4.8
2017-Jul-17 16:00N 59°25' E 021°58'2 4.7
2017-Jul-17 15:30N 59°25' E 022°03'2 4.7
2017-Jul-17 15:00N 59°26' E 022°07'2 4.9
2017-Jul-17 14:30N 59°27' E 022°12'2 4.4
2017-Jul-17 14:00N 59°28' E 022°16'2 3.8
2017-Jul-17 13:30N 59°28' E 022°19'2 4.6
2017-Jul-17 13:00N 59°29' E 022°23'2 4.9
2017-Jul-17 12:30N 59°30' E 022°28'2 4.8
2017-Jul-17 12:01N 59°31' E 022°32'2 4.8
2017-Jul-17 11:31N 59°32' E 022°37'3 5.2
2017-Jul-17 11:00N 59°33' E 022°42'3 5.5
2017-Jul-17 10:30N 59°34' E 022°47'3 5.3
2017-Jul-17 10:00N 59°34' E 022°52'3 5.5
2017-Jul-17 09:30N 59°35' E 022°57'3 5.3
2017-Jul-17 09:01N 59°36' E 023°02'3 5.2
2017-Jul-17 08:30N 59°37' E 023°07'3 5.3
2017-Jul-17 08:00N 59°37' E 023°12'3 6.0
2017-Jul-17 07:30N 59°38' E 023°18'3 6.4
2017-Jul-17 07:00N 59°39' E 023°24'3 6.5
2017-Jul-17 06:30N 59°40' E 023°30'3 6.7
2017-Jul-17 06:00N 59°40' E 023°36'4 7.0
2017-Jul-17 05:31N 59°41' E 023°43'3 6.4
2017-Jul-17 05:00N 59°42' E 023°49'3 6.3
2017-Jul-17 04:31N 59°43' E 023°55'3 6.2
2017-Jul-17 04:01N 59°44' E 024°01'3 6.2
2017-Jul-17 03:30N 59°45' E 024°07'3 6.1
2017-Jul-17 03:01N 59°45' E 024°13'3 5.9
2017-Jul-17 02:31N 59°46' E 024°19'3 6.0
2017-Jul-17 02:01N 59°47' E 024°25'3 6.4
2017-Jul-17 01:31N 59°48' E 024°31'3 6.3
2017-Jul-17 01:01N 59°48' E 024°37'3 6.4
2017-Jul-17 00:31N 59°49' E 024°43'3 6.6
2017-Jul-17 00:01N 59°50' E 024°49'3 6.9
2017-Jul-16 23:30N 59°51' E 024°56'3 6.6
2017-Jul-16 23:00N 59°52' E 025°02'3 6.3
2017-Jul-16 22:30N 59°52' E 025°08'3 6.0
2017-Jul-16 22:00N 59°53' E 025°14'3 6.0
2017-Jul-16 21:31N 59°54' E 025°20'3 6.2
2017-Jul-16 21:00N 59°54' E 025°26'3 6.4
2017-Jul-16 20:31N 59°54' E 025°33'3 5.2
2017-Jul-16 20:00N 59°55' E 025°38'2 4.9
2017-Jul-16 19:31N 59°55' E 025°43'3 5.3
2017-Jul-16 19:01N 59°56' E 025°48'4 7.9
2017-Jul-16 18:30N 59°58' E 025°55'4 8.2
2017-Jul-16 18:01N 60°00' E 026°01'4 8.2
2017-Jul-16 17:31N 60°03' E 026°07'4 8.3
2017-Jul-16 17:01N 60°06' E 026°13'4 8.3
2017-Jul-16 16:30N 60°09' E 026°20'5 9.1
2017-Jul-16 16:00N 60°13' E 026°24'4 7.5
2017-Jul-16 15:30N 60°16' E 026°29'4 7.6
2017-Jul-16 15:01N 60°18' E 026°34'4 7.9
2017-Jul-16 14:30N 60°21' E 026°40'5 9.2
2017-Jul-16 14:00N 60°23' E 026°48'4 7.6
2017-Jul-16 13:30N 60°25' E 026°55'2 3.3
2017-Jul-16 13:00N 60°26' E 026°57'2 3.5
2017-Jul-16 12:30N 60°28' E 026°58'1 2.1
2017-Jul-16 12:00N 60°28' E 026°57'0 0.2
2017-Jul-16 11:29N 60°28' E 026°57'0 0.0
2017-Jul-16 11:00N 60°28' E 026°57'0 0.0
2017-Jul-16 10:28N 60°28' E 026°57'0 0.0
2017-Jul-16 09:58N 60°28' E 026°57'0 0.0
2017-Jul-16 09:27N 60°28' E 026°57'  
Track history (hours):
 
Tides and Currents Weather Stations Pressure Air Temp Water Temp Dewpoint Dewpoint Depression Visibility Wind Speed Wind Dir Waves Ship Positions

Kruzenshtern (Russia)

ex-Padua.

Last reported at 2017-Jul-26 09:11 UTC. Time now 2017-Jul-27 00:36 UTC.
Position N 56°09' E 019°54'.

Length 114 m; draft 6.2 m.

Type: Sailing vessel. MMSI: 273243700.

Date/timePositionNaut miles runAvg speedWind from/ knotsBaromVisibWave heightAir tempDewpointWater temp
2017-Jul-26 09:11N 56°09' E 019°54'2 8.9
2017-Jul-26 09:00N 56°10' E 019°52'8 9.0
2017-Jul-26 08:09N 56°15' E 019°41'1 8.9
2017-Jul-26 08:01N 56°16' E 019°39'9 8.5
2017-Jul-26 06:56N 56°21' E 019°25'4 7.5
2017-Jul-26 06:26N 56°23' E 019°19'4 7.2
2017-Jul-26 05:54N 56°25' E 019°14'8 6.6
2017-Jul-26 04:40N 56°30' E 019°03'18 5.7
2017-Jul-26 01:31N 56°40' E 018°36'0 6.0
2017-Jul-26 01:29N 56°40' E 018°35'3 5.6
2017-Jul-26 00:58N 56°42' E 018°31'2 5.0
2017-Jul-26 00:29N 56°43' E 018°27'13 5.2
2017-Jul-25 22:04N 56°51' E 018°09'1 5.1
2017-Jul-25 21:47N 56°52' E 018°07'141 5.4
2017-Jul-24 19:47N 59°04' E 019°44'2 7.5
2017-Jul-24 19:30N 59°05' E 019°47'4 6.7
2017-Jul-24 18:52N 59°08' E 019°53'2 6.7
2017-Jul-24 18:30N 59°09' E 019°58'4 6.9
2017-Jul-24 17:57N 59°11' E 020°04'4 7.2
2017-Jul-24 17:23N 59°12' E 020°11'3 7.3
2017-Jul-24 16:59N 59°14' E 020°16'4 7.9
2017-Jul-24 16:30N 59°16' E 020°23'4 7.4
2017-Jul-24 16:00N 59°18' E 020°29'22 7.3
2017-Jul-24 13:00N 59°31' E 021°02'3 5.2
2017-Jul-24 12:30N 59°33' E 021°06'3 5.4
2017-Jul-24 12:00N 59°35' E 021°10'3 5.0
2017-Jul-24 11:30N 59°37' E 021°13'3 5.3
2017-Jul-24 11:00N 59°39' E 021°17'1 1.7
2017-Jul-24 10:30N 59°39' E 021°16'3 6.6
2017-Jul-24 10:00N 59°37' E 021°10'2 3.0
2017-Jul-24 09:30N 59°36' E 021°07'0 0.4
2017-Jul-24 09:00N 59°36' E 021°08'0 0.5
2017-Jul-24 08:30N 59°37' E 021°08'0 0.7
2017-Jul-24 08:01N 59°37' E 021°09'0 0.5
2017-Jul-24 07:30N 59°37' E 021°09'0 0.6
2017-Jul-24 07:00N 59°37' E 021°10'0 0.4
2017-Jul-24 06:30N 59°37' E 021°10'0 0.5
2017-Jul-24 06:00N 59°37' E 021°10'1 2.9
2017-Jul-24 05:30N 59°36' E 021°11'3 6.0
2017-Jul-24 05:00N 59°34' E 021°06'3 6.1
2017-Jul-24 04:30N 59°32' E 021°02'1 1.6
2017-Jul-24 04:01N 59°31' E 021°01'0 0.7
2017-Jul-24 03:31N 59°31' E 021°02'0 0.7
2017-Jul-24 03:00N 59°31' E 021°02'0 0.7
2017-Jul-24 02:31N 59°32' E 021°03'0 0.6
2017-Jul-24 02:00N 59°32' E 021°03'0 0.7
2017-Jul-24 01:30N 59°32' E 021°04'0 0.7
2017-Jul-24 01:00N 59°33' E 021°04'0 0.6
2017-Jul-24 00:30N 59°33' E 021°04'0 0.5
2017-Jul-24 00:00N 59°33' E 021°04'0 0.6
2017-Jul-23 23:30N 59°33' E 021°05'0 0.6
2017-Jul-23 23:00N 59°33' E 021°05'0 0.5
2017-Jul-23 22:31N 59°34' E 021°05'0 0.6
2017-Jul-23 22:00N 59°34' E 021°06'2 4.4
2017-Jul-23 21:31N 59°35' E 021°10'5 9.9
2017-Jul-23 21:01N 59°38' E 021°17'5 9.8
2017-Jul-23 20:31N 59°43' E 021°21'5 9.3
2017-Jul-23 20:01N 59°47' E 021°21'5 9.4
2017-Jul-23 19:30N 59°51' E 021°26'5 9.6
2017-Jul-23 19:00N 59°54' E 021°34'5 9.9
2017-Jul-23 18:30N 59°57' E 021°41'5 9.8
2017-Jul-23 18:00N 60°02' E 021°41'5 9.9
2017-Jul-23 17:30N 60°07' E 021°41'510.2
2017-Jul-23 17:01N 60°12' E 021°42'5 9.3
2017-Jul-23 16:31N 60°15' E 021°50'4 8.6
2017-Jul-23 16:00N 60°16' E 021°58'4 8.5
2017-Jul-23 15:30N 60°20' E 022°04'4 8.5
2017-Jul-23 15:00N 60°24' E 022°07'3 5.7
2017-Jul-23 14:30N 60°26' E 022°11'1 2.5
2017-Jul-23 14:00N 60°26' E 022°14'1 1.1
2017-Jul-23 13:30N 60°26' E 022°14'0 0.0
2017-Jul-23 12:58N 60°26' E 022°14'0 0.0
2017-Jul-23 12:30N 60°26' E 022°14'0 0.0
2017-Jul-23 11:57N 60°26' E 022°14'0 0.0
2017-Jul-23 11:30N 60°26' E 022°14'0 0.0
2017-Jul-23 10:54N 60°26' E 022°14'0 0.0
2017-Jul-23 10:30N 60°26' E 022°14'0 0.0
2017-Jul-23 09:57N 60°26' E 022°14'0 0.0
2017-Jul-23 09:30N 60°26' E 022°14'0 0.0
2017-Jul-23 09:00N 60°26' E 022°14'0 0.0
2017-Jul-23 08:27N 60°26' E 022°14'0 0.0
2017-Jul-23 07:57N 60°26' E 022°14'0 0.0
2017-Jul-23 07:30N 60°26' E 022°14'0 0.0
2017-Jul-23 06:53N 60°26' E 022°14'0 0.0
2017-Jul-23 06:30N 60°26' E 022°14'0 0.0
2017-Jul-23 05:57N 60°26' E 022°14'0 0.0
2017-Jul-23 05:30N 60°26' E 022°14'0 0.0
2017-Jul-23 05:00N 60°26' E 022°14'0 0.0
2017-Jul-23 04:30N 60°26' E 022°14'0 0.0
2017-Jul-23 04:00N 60°26' E 022°14'0 0.0
2017-Jul-23 03:27N 60°26' E 022°14'0 0.0
2017-Jul-23 02:57N 60°26' E 022°14'0 0.0
2017-Jul-23 02:30N 60°26' E 022°14'0 0.0
2017-Jul-23 02:00N 60°26' E 022°14'0 0.0
2017-Jul-23 01:30N 60°26' E 022°14'0 0.0
2017-Jul-23 01:00N 60°26' E 022°14'0 0.0
2017-Jul-23 00:27N 60°26' E 022°14'0 0.0
2017-Jul-23 00:00N 60°26' E 022°14'0 0.0
2017-Jul-22 23:27N 60°26' E 022°14'0 0.0
2017-Jul-22 23:00N 60°26' E 022°14'0 0.0
2017-Jul-22 22:30N 60°26' E 022°14'0 0.0
2017-Jul-22 21:54N 60°26' E 022°14'0 0.0
2017-Jul-22 21:30N 60°26' E 022°14'0 0.0
2017-Jul-22 20:56N 60°26' E 022°14'0 0.0
2017-Jul-22 20:29N 60°26' E 022°14'0 0.0
2017-Jul-22 19:59N 60°26' E 022°14'0 0.0
2017-Jul-22 19:28N 60°26' E 022°14'0 0.0
2017-Jul-22 19:00N 60°26' E 022°14'0 0.0
2017-Jul-22 18:30N 60°26' E 022°14'0 0.0
2017-Jul-22 18:00N 60°26' E 022°14'0 0.0
2017-Jul-22 17:27N 60°26' E 022°14'0 0.0
2017-Jul-22 17:00N 60°26' E 022°14'0 0.0
2017-Jul-22 16:30N 60°26' E 022°14'0 0.0
2017-Jul-22 16:00N 60°26' E 022°14'0 0.0
2017-Jul-22 15:30N 60°26' E 022°14'0 0.0
2017-Jul-22 14:57N 60°26' E 022°14'0 0.0
2017-Jul-22 13:57N 60°26' E 022°14'0 0.0
2017-Jul-22 13:30N 60°26' E 022°14'0 0.0
2017-Jul-22 12:57N 60°26' E 022°14'0 0.0
2017-Jul-22 12:30N 60°26' E 022°14'0 0.0
2017-Jul-22 11:57N 60°26' E 022°14'0 0.0
2017-Jul-22 11:30N 60°26' E 022°14'0 0.0
2017-Jul-22 11:00N 60°26' E 022°14'0 0.0
2017-Jul-22 10:30N 60°26' E 022°14'0 0.0
2017-Jul-22 10:00N 60°26' E 022°14'0 0.0
2017-Jul-22 09:27N 60°26' E 022°14'0 0.0
2017-Jul-22 08:57N 60°26' E 022°14'0 0.0
2017-Jul-22 08:30N 60°26' E 022°14'0 0.0
2017-Jul-22 08:00N 60°26' E 022°14'0 0.0
2017-Jul-22 07:30N 60°26' E 022°14'0 0.0
2017-Jul-22 07:00N 60°26' E 022°14'0 0.0
2017-Jul-22 06:30N 60°26' E 022°14'0 0.0
2017-Jul-22 06:00N 60°26' E 022°14'0 0.0
2017-Jul-22 05:30N 60°26' E 022°14'0 0.0
2017-Jul-22 05:00N 60°26' E 022°14'0 0.0
2017-Jul-22 04:30N 60°26' E 022°14'0 0.0
2017-Jul-22 04:00N 60°26' E 022°14'0 0.0
2017-Jul-22 03:30N 60°26' E 022°14'0 0.0
2017-Jul-22 02:57N 60°26' E 022°14'0 0.0
2017-Jul-22 02:30N 60°26' E 022°14'0 0.0
2017-Jul-22 02:00N 60°26' E 022°14'0 0.0
2017-Jul-22 01:27N 60°26' E 022°14'0 0.0
2017-Jul-22 01:00N 60°26' E 022°14'0 0.0
2017-Jul-22 00:30N 60°26' E 022°14'0 0.0
2017-Jul-22 00:00N 60°26' E 022°14'0 0.0
2017-Jul-21 23:30N 60°26' E 022°14'0 0.0
2017-Jul-21 23:00N 60°26' E 022°14'0 0.0
2017-Jul-21 22:30N 60°26' E 022°14'0 0.0
2017-Jul-21 22:00N 60°26' E 022°14'0 0.0
2017-Jul-21 21:27N 60°26' E 022°14'0 0.0
2017-Jul-21 21:00N 60°26' E 022°14'0 0.0
2017-Jul-21 20:27N 60°26' E 022°14'0 0.0
2017-Jul-21 20:00N 60°26' E 022°14'0 0.0
2017-Jul-21 19:27N 60°26' E 022°14'0 0.0
2017-Jul-21 19:00N 60°26' E 022°14'0 0.0
2017-Jul-21 18:30N 60°26' E 022°14'0 0.0
2017-Jul-21 18:00N 60°26' E 022°14'0 0.0
2017-Jul-21 17:27N 60°26' E 022°14'0 0.0
2017-Jul-21 17:00N 60°26' E 022°14'0 0.0
2017-Jul-21 16:28N 60°26' E 022°14'0 0.0
2017-Jul-21 16:00N 60°26' E 022°14'0 0.0
2017-Jul-21 15:30N 60°26' E 022°14'0 0.0
2017-Jul-21 14:57N 60°26' E 022°14'0 0.0
2017-Jul-21 14:30N 60°26' E 022°14'0 0.0
2017-Jul-21 14:00N 60°26' E 022°14'0 0.0
2017-Jul-21 13:30N 60°26' E 022°14'0 0.0
2017-Jul-21 12:57N 60°26' E 022°14'0 0.0
2017-Jul-21 12:27N 60°26' E 022°14'0 0.0
2017-Jul-21 11:54N 60°26' E 022°14'0 0.0
2017-Jul-21 11:30N 60°26' E 022°14'0 0.0
2017-Jul-21 11:00N 60°26' E 022°14'0 0.0
2017-Jul-21 10:30N 60°26' E 022°14'0 0.0
2017-Jul-21 10:00N 60°26' E 022°14'0 0.0
2017-Jul-21 09:30N 60°26' E 022°14'0 0.0
2017-Jul-21 09:00N 60°26' E 022°14'0 0.0
2017-Jul-21 08:30N 60°26' E 022°14'0 0.0
2017-Jul-21 08:00N 60°26' E 022°14'0 0.0
2017-Jul-21 07:30N 60°26' E 022°14'0 0.0
2017-Jul-21 07:00N 60°26' E 022°14'0 0.0
2017-Jul-21 06:30N 60°26' E 022°14'0 0.0
2017-Jul-21 06:00N 60°26' E 022°14'0 0.0
2017-Jul-21 05:30N 60°26' E 022°14'0 0.0
2017-Jul-21 04:57N 60°26' E 022°14'0 0.0
2017-Jul-21 04:30N 60°26' E 022°14'0 0.0
2017-Jul-21 03:57N 60°26' E 022°14'0 0.0
2017-Jul-21 03:30N 60°26' E 022°14'0 0.0
2017-Jul-21 03:00N 60°26' E 022°14'0 0.0
2017-Jul-21 02:30N 60°26' E 022°14'0 0.0
2017-Jul-21 02:00N 60°26' E 022°14'0 0.0
2017-Jul-21 01:30N 60°26' E 022°14'0 0.0
2017-Jul-21 01:00N 60°26' E 022°14'0 0.0
2017-Jul-21 00:30N 60°26' E 022°14'0 0.0
2017-Jul-21 00:00N 60°26' E 022°14'0 0.0
2017-Jul-20 23:30N 60°26' E 022°14'0 0.0
2017-Jul-20 22:51N 60°26' E 022°14'0 0.0
2017-Jul-20 22:30N 60°26' E 022°14'0 0.0
2017-Jul-20 21:57N 60°26' E 022°14'0 0.0
2017-Jul-20 21:30N 60°26' E 022°14'0 0.0
2017-Jul-20 20:56N 60°26' E 022°14'0 0.0
2017-Jul-20 20:28N 60°26' E 022°14'0 0.0
2017-Jul-20 20:00N 60°26' E 022°14'0 0.0
2017-Jul-20 19:27N 60°26' E 022°14'0 0.0
2017-Jul-20 19:00N 60°26' E 022°14'0 0.0
2017-Jul-20 18:30N 60°26' E 022°14'0 0.0
2017-Jul-20 18:00N 60°26' E 022°14'0 0.0
2017-Jul-20 17:30N 60°26' E 022°14'0 0.0
2017-Jul-20 17:00N 60°26' E 022°14'0 0.0
2017-Jul-20 16:28N 60°26' E 022°14'0 0.0
2017-Jul-20 16:00N 60°26' E 022°14'0 0.0
2017-Jul-20 15:24N 60°26' E 022°14'0 0.0
2017-Jul-20 14:51N 60°26' E 022°14'0 0.0
2017-Jul-20 13:54N 60°26' E 022°14'0 0.0
2017-Jul-20 13:30N 60°26' E 022°14'0 0.0
2017-Jul-20 12:57N 60°26' E 022°14'0 0.0
2017-Jul-20 12:30N 60°26' E 022°14'0 0.0
2017-Jul-20 12:00N 60°26' E 022°14'0 0.0
2017-Jul-20 11:21N 60°26' E 022°14'0 0.0
2017-Jul-20 11:00N 60°26' E 022°14'0 0.0
2017-Jul-20 10:30N 60°26' E 022°14'0 0.0
2017-Jul-20 10:00N 60°26' E 022°14'0 0.0
2017-Jul-20 09:30N 60°26' E 022°14'0 0.0
2017-Jul-20 09:00N 60°26' E 022°14'0 0.0
2017-Jul-20 08:27N 60°26' E 022°14'0 0.0
2017-Jul-20 08:00N 60°26' E 022°14'0 0.0
2017-Jul-20 07:30N 60°26' E 022°14'0 0.0
2017-Jul-20 07:00N 60°26' E 022°14'0 0.0
2017-Jul-20 06:30N 60°26' E 022°14'0 0.0
2017-Jul-20 06:00N 60°26' E 022°14'0 0.0
2017-Jul-20 05:30N 60°26' E 022°14'0 0.0
2017-Jul-20 04:57N 60°26' E 022°14'0 0.0
2017-Jul-20 04:30N 60°26' E 022°14'0 0.0
2017-Jul-20 03:54N 60°26' E 022°14'0 0.0
2017-Jul-20 03:27N 60°26' E 022°14'0 0.0
2017-Jul-20 03:00N 60°26' E 022°14'0 0.0
2017-Jul-20 02:30N 60°26' E 022°14'0 0.0
2017-Jul-20 02:00N 60°26' E 022°14'0 0.0
2017-Jul-20 01:27N 60°26' E 022°14'0 0.0
2017-Jul-20 01:00N 60°26' E 022°14'0 0.0
2017-Jul-20 00:30N 60°26' E 022°14'0 0.0
2017-Jul-20 00:00N 60°26' E 022°14'0 0.0
2017-Jul-19 23:30N 60°26' E 022°14'0 0.0
2017-Jul-19 23:00N 60°26' E 022°14'0 0.0
2017-Jul-19 22:30N 60°26' E 022°14'0 0.0
2017-Jul-19 22:00N 60°26' E 022°14'0 0.0
2017-Jul-19 21:27N 60°26' E 022°14'0 0.0
2017-Jul-19 21:00N 60°26' E 022°14'0 0.0
2017-Jul-19 20:28N 60°26' E 022°14'0 0.1
2017-Jul-19 20:00N 60°26' E 022°14'1 1.0
2017-Jul-19 19:30N 60°26' E 022°13'2 3.3
2017-Jul-19 19:01N 60°25' E 022°10'3 5.9
2017-Jul-19 18:30N 60°23' E 022°07'2 4.8
2017-Jul-19 18:00N 60°21' E 022°05'2 3.4
2017-Jul-19 17:30N 60°19' E 022°03'3 5.3
2017-Jul-19 17:00N 60°17' E 022°01'4 7.2
2017-Jul-19 16:30N 60°16' E 021°54'4 7.9
2017-Jul-19 16:00N 60°14' E 021°46'4 7.8
2017-Jul-19 15:30N 60°11' E 021°42'4 8.2
2017-Jul-19 15:00N 60°07' E 021°41'4 8.3
2017-Jul-19 14:30N 60°03' E 021°41'4 8.2
2017-Jul-19 14:00N 59°59' E 021°42'5 9.1
2017-Jul-19 13:30N 59°55' E 021°37'5 9.6
2017-Jul-19 13:00N 59°52' E 021°29'5 9.4
2017-Jul-19 12:30N 59°49' E 021°21'4 8.1
2017-Jul-19 12:00N 59°45' E 021°21'4 7.4
2017-Jul-19 11:30N 59°42' E 021°19'3 6.0
2017-Jul-19 11:00N 59°39' E 021°16'3 6.8
2017-Jul-19 10:30N 59°36' E 021°12'4 7.2
2017-Jul-19 10:00N 59°33' E 021°08'4 7.1
2017-Jul-19 09:30N 59°30' E 021°04'3 6.8
2017-Jul-19 09:00N 59°28' E 021°01'3 6.7
2017-Jul-19 08:30N 59°25' E 020°57'3 6.6
2017-Jul-19 08:00N 59°22' E 020°53'14 6.4
2017-Jul-19 05:47N 59°10' E 020°38'1 3.0
2017-Jul-19 05:30N 59°11' E 020°38'0 0.9
2017-Jul-19 05:00N 59°11' E 020°38'0 0.9
2017-Jul-19 04:30N 59°12' E 020°38'0 0.8
2017-Jul-19 04:00N 59°12' E 020°37'0 1.0
2017-Jul-19 03:30N 59°13' E 020°37'0 0.9
2017-Jul-19 03:00N 59°13' E 020°37'1 1.1
2017-Jul-19 02:30N 59°14' E 020°36'1 1.1
2017-Jul-19 02:00N 59°14' E 020°36'1 1.2
2017-Jul-19 01:30N 59°15' E 020°36'1 1.0
2017-Jul-19 01:00N 59°15' E 020°35'0 0.8
2017-Jul-19 00:30N 59°15' E 020°35'0 0.7
2017-Jul-19 00:00N 59°16' E 020°34'0 0.7
2017-Jul-18 23:30N 59°16' E 020°33'0 0.6
2017-Jul-18 23:00N 59°16' E 020°33'0 0.6
2017-Jul-18 22:30N 59°16' E 020°32'0 0.5
2017-Jul-18 22:00N 59°16' E 020°32'0 0.4
2017-Jul-18 21:30N 59°16' E 020°31'0 0.3
2017-Jul-18 21:00N 59°16' E 020°31'0 0.1
2017-Jul-18 20:31N 59°16' E 020°31'1 1.2
2017-Jul-18 19:59N 59°15' E 020°31'3 7.1
2017-Jul-18 19:30N 59°12' E 020°32'5 6.1
2017-Jul-18 18:37N 59°07' E 020°35'2 5.5
2017-Jul-18 18:14N 59°05' E 020°35'1 4.7
2017-Jul-18 18:00N 59°06' E 020°35'2 3.4
2017-Jul-18 17:30N 59°07' E 020°34'1 1.1
2017-Jul-18 16:59N 59°07' E 020°33'2 3.2
2017-Jul-18 16:30N 59°05' E 020°34'2 3.4
2017-Jul-18 16:00N 59°04' E 020°34'2 3.5
2017-Jul-18 15:22N 59°02' E 020°35'1 3.4
2017-Jul-18 15:00N 59°00' E 020°35'5 2.7
2017-Jul-18 13:18N 58°56' E 020°34'2 2.9
2017-Jul-18 12:35N 58°58' E 020°33'0 2.5
2017-Jul-18 12:30N 58°58' E 020°33'1 2.4
2017-Jul-18 12:00N 58°59' E 020°33'1 2.1
2017-Jul-18 11:30N 59°00' E 020°33'1 2.1
2017-Jul-18 11:01N 59°01' E 020°33'1 2.1
2017-Jul-18 10:30N 59°02' E 020°33'1 2.7
2017-Jul-18 10:00N 59°04' E 020°34'2 3.3
2017-Jul-18 09:30N 59°05' E 020°34'2 3.6
2017-Jul-18 09:00N 59°07' E 020°35'2 3.5
2017-Jul-18 08:31N 59°09' E 020°36'2 3.3
2017-Jul-18 08:01N 59°10' E 020°36'2 3.8
2017-Jul-18 07:30N 59°12' E 020°36'1 2.3
2017-Jul-18 07:01N 59°13' E 020°36'1 2.2
2017-Jul-18 06:30N 59°14' E 020°37'1 2.4
2017-Jul-18 06:01N 59°15' E 020°38'1 1.5
2017-Jul-18 05:30N 59°16' E 020°39'0 0.8
2017-Jul-18 05:00N 59°16' E 020°39'0 0.8
2017-Jul-18 04:30N 59°17' E 020°39'0 0.9
2017-Jul-18 04:00N 59°17' E 020°39'0 0.8
2017-Jul-18 03:30N 59°18' E 020°39'0 0.7
2017-Jul-18 03:00N 59°18' E 020°38'0 0.6
2017-Jul-18 02:30N 59°18' E 020°37'0 0.6
2017-Jul-18 02:00N 59°18' E 020°37'0 0.6
2017-Jul-18 01:30N 59°18' E 020°36'0 0.7
2017-Jul-18 01:00N 59°18' E 020°35'0 0.8
2017-Jul-18 00:30N 59°18' E 020°35'0 0.7
2017-Jul-18 00:01N 59°18' E 020°35'3 5.4
2017-Jul-17 23:30N 59°18' E 020°40'3 6.1
2017-Jul-17 23:00N 59°18' E 020°46'3 6.0
2017-Jul-17 22:30N 59°19' E 020°52'3 5.5
2017-Jul-17 22:00N 59°19' E 020°57'2 4.2
2017-Jul-17 21:30N 59°19' E 021°01'2 4.6
2017-Jul-17 21:00N 59°19' E 021°06'3 5.3
2017-Jul-17 20:31N 59°20' E 021°11'3 5.7
2017-Jul-17 20:00N 59°20' E 021°17'3 5.6
2017-Jul-17 19:30N 59°20' E 021°22'3 5.7
2017-Jul-17 19:00N 59°20' E 021°28'3 5.8
2017-Jul-17 18:30N 59°21' E 021°33'3 5.6
2017-Jul-17 18:00N 59°21' E 021°39'3 5.6
2017-Jul-17 17:29N 59°22' E 021°44'3 5.6
2017-Jul-17 17:00N 59°23' E 021°49'3 5.1
2017-Jul-17 16:30N 59°24' E 021°54'2 4.8
2017-Jul-17 16:00N 59°25' E 021°58'2 4.7
2017-Jul-17 15:30N 59°25' E 022°03'2 4.7
2017-Jul-17 15:00N 59°26' E 022°07'2 4.9
2017-Jul-17 14:30N 59°27' E 022°12'2 4.4
2017-Jul-17 14:00N 59°28' E 022°16'2 3.8
2017-Jul-17 13:30N 59°28' E 022°19'2 4.6
2017-Jul-17 13:00N 59°29' E 022°23'2 4.9
2017-Jul-17 12:30N 59°30' E 022°28'2 4.8
2017-Jul-17 12:01N 59°31' E 022°32'2 4.8
2017-Jul-17 11:31N 59°32' E 022°37'3 5.2
2017-Jul-17 11:00N 59°33' E 022°42'3 5.5
2017-Jul-17 10:30N 59°34' E 022°47'3 5.3
2017-Jul-17 10:00N 59°34' E 022°52'3 5.5
2017-Jul-17 09:30N 59°35' E 022°57'3 5.3
2017-Jul-17 09:01N 59°36' E 023°02'3 5.2
2017-Jul-17 08:30N 59°37' E 023°07'3 5.3
2017-Jul-17 08:00N 59°37' E 023°12'3 6.0
2017-Jul-17 07:30N 59°38' E 023°18'3 6.4
2017-Jul-17 07:00N 59°39' E 023°24'3 6.5
2017-Jul-17 06:30N 59°40' E 023°30'3 6.7
2017-Jul-17 06:00N 59°40' E 023°36'4 7.0
2017-Jul-17 05:31N 59°41' E 023°43'3 6.4
2017-Jul-17 05:00N 59°42' E 023°49'3 6.3
2017-Jul-17 04:31N 59°43' E 023°55'3 6.2
2017-Jul-17 04:01N 59°44' E 024°01'3 6.2
2017-Jul-17 03:30N 59°45' E 024°07'3 6.1
2017-Jul-17 03:01N 59°45' E 024°13'3 5.9
2017-Jul-17 02:31N 59°46' E 024°19'3 6.0
2017-Jul-17 02:01N 59°47' E 024°25'3 6.4
2017-Jul-17 01:31N 59°48' E 024°31'3 6.3
2017-Jul-17 01:01N 59°48' E 024°37'3 6.4
2017-Jul-17 00:31N 59°49' E 024°43'3 6.6
2017-Jul-17 00:01N 59°50' E 024°49'3 6.9
2017-Jul-16 23:30N 59°51' E 024°56'3 6.6
2017-Jul-16 23:00N 59°52' E 025°02'3 6.3
2017-Jul-16 22:30N 59°52' E 025°08'3 6.0
2017-Jul-16 22:00N 59°53' E 025°14'3 6.0
2017-Jul-16 21:31N 59°54' E 025°20'3 6.2
2017-Jul-16 21:00N 59°54' E 025°26'3 6.4
2017-Jul-16 20:31N 59°54' E 025°33'3 5.2
2017-Jul-16 20:00N 59°55' E 025°38'2 4.9
2017-Jul-16 19:31N 59°55' E 025°43'3 5.3
2017-Jul-16 19:01N 59°56' E 025°48'4 7.9
2017-Jul-16 18:30N 59°58' E 025°55'4 8.2
2017-Jul-16 18:01N 60°00' E 026°01'4 8.2
2017-Jul-16 17:31N 60°03' E 026°07'4 8.3
2017-Jul-16 17:01N 60°06' E 026°13'4 8.3
2017-Jul-16 16:30N 60°09' E 026°20'5 9.1
2017-Jul-16 16:00N 60°13' E 026°24'4 7.5
2017-Jul-16 15:30N 60°16' E 026°29'4 7.6
2017-Jul-16 15:01N 60°18' E 026°34'4 7.9
2017-Jul-16 14:30N 60°21' E 026°40'5 9.2
2017-Jul-16 14:00N 60°23' E 026°48'4 7.6
2017-Jul-16 13:30N 60°25' E 026°55'2 3.3
2017-Jul-16 13:00N 60°26' E 026°57'2 3.5
2017-Jul-16 12:30N 60°28' E 026°58'1 2.1
2017-Jul-16 12:00N 60°28' E 026°57'0 0.2
2017-Jul-16 11:29N 60°28' E 026°57'0 0.0
2017-Jul-16 11:00N 60°28' E 026°57'0 0.0
2017-Jul-16 10:28N 60°28' E 026°57'0 0.0
2017-Jul-16 09:58N 60°28' E 026°57'0 0.0
2017-Jul-16 09:27N 60°28' E 026°57'  

Dump ship's entire track history